Samanzing Airstrip

AYSZ · Morobe, Papua-Neuguinea

METAR-Geschichte AYSZ · Samanzing Airstrip

Unten siehst du die METARs der letzten paar Tage. Wähle ein Jahr, um ältere METARs ab dem Jahr 2007 zu durchsuchen.

29. November 2022

Uhrzeit Code Wetter Temp. Sichtweite Wolkendecke Wind METAR/SPECI
17:00
V
31 °C 10 km+ - 080° 080° 15 - 20 kt METAR AYNZ 290700Z 08015G20KT 9999 SCT050 31/- Q1003
16:00
V
31 °C 10 km+ 5.000 ft 090° 090° 15 - 20 kt METAR AYNZ 290600Z 09015G20KT 9999 BKN050 31/- Q1003=
15:00
V
33 °C 10 km+ 5.000 ft 090° 090° 5 - 15 kt METAR AYNZ 290500Z 09005G15KT 9999 BKN050 33/- Q1004 RMK
14:00
V
34 °C 10 km+ 5.000 ft 140° 140° 5 kt METAR AYNZ 290400Z 14005KT 9999 BKN050 34/- Q1004
13:00
V
35 °C 10 km+ 5.000 ft 240° 240° 5 - 10 kt METAR AYNZ 290300Z 24005G10KT 9999 BKN050 35/- Q1005=
12:00
V
33 °C 10 km+ - 210° 210° 5 - 10 kt METAR AYNZ 290200Z 21005G10KT 9999 SCT050 33/23 Q1006=
07:00
V
25 °C 10 km+ - Var Var 5 kt METAR AYNZ 282100Z VRB05KT 9999 FEW050 25/23 Q1009

28. November 2022

Uhrzeit Code Wetter Temp. Sichtweite Wolkendecke Wind METAR/SPECI
18:00
V
27 °C 10 km+ - 080° 080° 7 kt METAR AYNZ 280800Z 08007KT 9999 FEW030 SCT050 27/24 Q1005
16:00
V
29 °C 10 km+ - 200° 200° 4 kt METAR AYNZ 280600Z 20004KT 9999 SCT030 SCT050 29/22 Q1003 RMK
15:00
V
29 °C 10 km+ 5.000 ft 270° 270° 7 kt METAR AYNZ 280500Z 27007KT 9999 SCT030 BKN050 29/22 Q1003
14:00
V
28 °C 10 km+ - 230° 230° 8 kt METAR AYNZ 280400Z 23008KT 9999 SCT030 SCT050 28/22 Q1005
13:00
V
28 °C 10 km+ - 260° 260° 8 kt METAR AYNZ 280300Z 26008KT 9999 SCT030 SCT050 28/22 Q1006
12:00
V
27 °C 10 km+ - 250° 250° 10 kt METAR AYNZ 280200Z 25010KT 9999 SCT015 SCT070 27/22 Q1008
07:00
M
23 °C 10 km+ 2.500 ft 080° 080° 8 kt METAR AYNZ 272100Z 08008KT 9999 -DZ SCT005 BKN025 23/22 Q1010 RMK
06:00
U
25 °C 0 m 500 ft Var Var 5 kt METAR AYNZ 272000Z VRB05KT 4000M -RA BKN005 BKN020 OVC050 25/24 Q1009=

27. November 2022

Uhrzeit Code Wetter Temp. Sichtweite Wolkendecke Wind METAR/SPECI
18:00
V
34 °C 10 km+ - 070° 070° 10 - 15 kt METAR AYNZ 270800Z 07010G15KT 9999 HZ SCT060 34/20 Q1005 RMK
17:00
V
31 °C 10 km+ - 090° 090° 15 - 20 kt METAR AYNZ 270700Z 09015G20KT 9999 HZ SCT060 31/22 Q1004 RMK
16:00
V
34 °C 10 km+ - 070° 070° 10 - 15 kt METAR AYNZ 270600Z 07010G15KT 9999 HZ SCT060 34/20 Q1004 RMK
15:00
V
34 °C 10 km+ - 070° 070° 10 - 15 kt METAR AYNZ 270500Z 07010G15KT 9999 HZ SCT060 34/20 Q1003 RMK
14:00
V
36 °C 10 km+ - 070° 070° 10 - 15 kt METAR AYNZ 270400Z 07010G15KT 9999 HZ SCT060 36/19 Q1004 RMK
13:00
V
36 °C 10 km+ - 140° 140° 10 - 15 kt METAR AYNZ 270300Z 14010G15KT 9999 HZ SCT060 36/21 Q1005 RMK
12:00
V
36 °C 10 km+ - 140° 140° 10 kt METAR AYNZ 270200Z 14010KT 9999 HZ SCT060 36/19 Q1006 RMK
11:00
V
35 °C 10 km+ - 260° 260° 8 kt METAR AYNZ 270100Z 26008KT 9999 HZ SCT050 35/19 Q1007
10:00
V
32 °C 10 km+ - 260° 260° 10 kt METAR AYNZ 270000Z 26010KT 9999 HZ FEW050 32/21 Q1008
09:00
V
30 °C 10 km+ - 260° 260° 10 kt METAR AYNZ 262300Z 26010KT 9999 HZ FEW050 30/22 Q1009
08:00
V
28 °C 10 km+ - 250° 250° 10 kt METAR AYNZ 262200Z 25010KT 9999 HZ FEW050 28/21 Q1009
07:00
V
26 °C 10 km+ - 250° 250° 10 kt METAR AYNZ 262100Z 25010KT 9999 HZ FEW050 26/21 Q1009
06:00
V
25 °C 10 km+ - 250° 250° 5 - 10 kt METAR AYNZ 262000Z 25005G10KT 9999 SCT050 25/21 Q1008 RMK
05:00
V
24 °C 10 km+ - 240° 240° 10 kt METAR AYNZ 261900Z 24010KT 9999 FEW005 SCT025 SCT050 24/21 Q1008

Wir und Dritte verfolgen dein Internetverhalten auf unserer Website mit Cookies. Wenn du fortfährst, gehen wir davon aus, dass du mit unserer Cookie-Richtlinie einverstanden bist.